Gallina — 9VGC4 — position and weather

sailwx.info

Track history (hours):
 
Tides and Currents Weather Stations Pressure Air Temp Water Temp Dewpoint Dewpoint Depression Visibility Wind Speed Wind Dir Waves Ship Positions

Gallina

Last reported at 2014-Aug-30 02:33 UTC. Time now 2014-Sep-22 22:22 UTC.
Position N 30°39' E 032°20'.
Warning: this ship's position is 23 days out of date.

Type: Ship (hazmat cat A). MMSI: 564646000.

Date/timePositionNaut miles runAvg speedWind from/ knotsBaromVisibWave heightAir tempDewpointWater temp
2014-Aug-30 02:33N 30°39' E 032°20'8 8.2
2014-Aug-30 01:32N 30°47' E 032°19'12 8.0
2014-Aug-30 00:06N 30°59' E 032°19'7 7.9
2014-Aug-29 23:11N 31°06' E 032°19'7 7.7
2014-Aug-29 22:14N 31°13' E 032°21'5 6.6
2014-Aug-29 21:33N 31°18' E 032°22'7 7.0
2014-Aug-29 20:31N 31°25' E 032°21'4 4.1
2014-Aug-29 19:27N 31°24' E 032°16'0 0.1
2014-Aug-29 18:32N 31°24' E 032°17'0 0.0
2014-Aug-29 16:18N 31°24' E 032°17'0 0.0
2014-Aug-29 10:32N 31°24' E 032°17'17712.6
2014-Aug-28 20:31N 32°31' E 029°04'1415.1
2014-Aug-28 19:33N 32°37' E 028°48'67915.0
2014-Aug-26 22:23N 35°56' E 015°42'1316.3
2014-Aug-26 21:33N 35°60' E 015°27'1616.3
2014-Aug-26 20:33N 36°05' E 015°07'1616.3
2014-Aug-26 19:33N 36°10' E 014°48'1616.1
2014-Aug-26 18:33N 36°14' E 014°29'1616.2
2014-Aug-26 17:33N 36°19' E 014°10'1616.2
2014-Aug-26 16:33N 36°24' E 013°51'1616.5
2014-Aug-26 15:33N 36°29' E 013°31'1717.2
2014-Aug-26 14:33N 36°34' E 013°11'1717.2
2014-Aug-26 13:33N 36°39' E 012°50'1616.3
2014-Aug-26 12:33N 36°46' E 012°32'1616.3
2014-Aug-26 11:33N 36°55' E 012°15'1716.5
2014-Aug-26 10:33N 37°04' E 011°57'1616.3
2014-Aug-26 09:33N 37°11' E 011°39'1616.0
2014-Aug-26 08:33N 37°18' E 011°21'1615.9
2014-Aug-26 07:33N 37°26' E 011°04'1715.9
2014-Aug-26 06:30N 37°34' E 010°45'1516.2
2014-Aug-26 05:33N 37°42' E 010°29'1716.5
2014-Aug-26 04:33N 37°49' E 010°09'1716.7
2014-Aug-26 03:33N 37°50' E 009°48'1616.3
2014-Aug-26 02:33N 37°53' E 009°28'1616.2
2014-Aug-26 01:33N 37°55' E 009°08'1816.3
2014-Aug-26 00:28N 37°56' E 008°45'1516.1
2014-Aug-25 23:33N 37°54' E 008°26'2017.9
2014-Aug-25 22:25N 37°53' E 008°01'1514.6
2014-Aug-25 21:24N 37°52' E 007°42'3615.8
2014-Aug-25 19:09N 37°52' E 006°57'1316.4
2014-Aug-25 18:22N 37°51' E 006°41'3315.0
2014-Aug-25 16:10N 37°51' E 005°59'813.7
2014-Aug-25 15:33N 37°51' E 005°48'1514.5
2014-Aug-25 14:33N 37°51' E 005°30'1414.4
2014-Aug-25 13:33N 37°50' E 005°12'1515.0
2014-Aug-25 12:33N 37°48' E 004°53'1515.4
2014-Aug-25 11:33N 37°44' E 004°34'1515.1
2014-Aug-25 10:33N 37°40' E 004°16'1515.2
2014-Aug-25 09:33N 37°36' E 003°57'1615.9
2014-Aug-25 08:33N 37°32' E 003°38'1616.0
2014-Aug-25 07:33N 37°28' E 003°18'1616.3
2014-Aug-25 06:33N 37°24' E 002°58'1615.9
2014-Aug-25 05:33N 37°19' E 002°39'1615.8
2014-Aug-25 04:32N 37°16' E 002°19'1715.8
2014-Aug-25 03:28N 37°12' E 001°59'4515.4
2014-Aug-25 00:33N 36°59' E 001°05'1515.0
2014-Aug-24 23:33N 36°54' E 000°47'4515.1
2014-Aug-24 20:33N 36°41' W 000°07'1815.1
2014-Aug-24 19:21N 36°37' W 000°29'1415.8
2014-Aug-24 18:29N 36°33' W 000°45'1415.4
2014-Aug-24 17:33N 36°29' W 001°03'20916.0
2014-Aug-24 04:32N 35°60' W 005°19'7214.2
2014-Aug-23 23:28N 35°49' W 006°46'1415.8
2014-Aug-23 22:33N 35°45' W 007°03'1616.0
2014-Aug-23 21:33N 35°41' W 007°23'  
Track history (hours):
 
Tides and Currents Weather Stations Pressure Air Temp Water Temp Dewpoint Dewpoint Depression Visibility Wind Speed Wind Dir Waves Ship Positions

Gallina

Last reported at 2014-Aug-30 02:33 UTC. Time now 2014-Sep-22 22:22 UTC.
Position N 30°39' E 032°20'.
Warning: this ship's position is 23 days out of date.

Type: Ship (hazmat cat A). MMSI: 564646000.

Date/timePositionNaut miles runAvg speedWind from/ knotsBaromVisibWave heightAir tempDewpointWater temp
2014-Aug-30 02:33N 30°39' E 032°20'8 8.2
2014-Aug-30 01:32N 30°47' E 032°19'12 8.0
2014-Aug-30 00:06N 30°59' E 032°19'7 7.9
2014-Aug-29 23:11N 31°06' E 032°19'7 7.7
2014-Aug-29 22:14N 31°13' E 032°21'5 6.6
2014-Aug-29 21:33N 31°18' E 032°22'7 7.0
2014-Aug-29 20:31N 31°25' E 032°21'4 4.1
2014-Aug-29 19:27N 31°24' E 032°16'0 0.1
2014-Aug-29 18:32N 31°24' E 032°17'0 0.0
2014-Aug-29 16:18N 31°24' E 032°17'0 0.0
2014-Aug-29 10:32N 31°24' E 032°17'17712.6
2014-Aug-28 20:31N 32°31' E 029°04'1415.1
2014-Aug-28 19:33N 32°37' E 028°48'67915.0
2014-Aug-26 22:23N 35°56' E 015°42'1316.3
2014-Aug-26 21:33N 35°60' E 015°27'1616.3
2014-Aug-26 20:33N 36°05' E 015°07'1616.3
2014-Aug-26 19:33N 36°10' E 014°48'1616.1
2014-Aug-26 18:33N 36°14' E 014°29'1616.2
2014-Aug-26 17:33N 36°19' E 014°10'1616.2
2014-Aug-26 16:33N 36°24' E 013°51'1616.5
2014-Aug-26 15:33N 36°29' E 013°31'1717.2
2014-Aug-26 14:33N 36°34' E 013°11'1717.2
2014-Aug-26 13:33N 36°39' E 012°50'1616.3
2014-Aug-26 12:33N 36°46' E 012°32'1616.3
2014-Aug-26 11:33N 36°55' E 012°15'1716.5
2014-Aug-26 10:33N 37°04' E 011°57'1616.3
2014-Aug-26 09:33N 37°11' E 011°39'1616.0
2014-Aug-26 08:33N 37°18' E 011°21'1615.9
2014-Aug-26 07:33N 37°26' E 011°04'1715.9
2014-Aug-26 06:30N 37°34' E 010°45'1516.2
2014-Aug-26 05:33N 37°42' E 010°29'1716.5
2014-Aug-26 04:33N 37°49' E 010°09'1716.7
2014-Aug-26 03:33N 37°50' E 009°48'1616.3
2014-Aug-26 02:33N 37°53' E 009°28'1616.2
2014-Aug-26 01:33N 37°55' E 009°08'1816.3
2014-Aug-26 00:28N 37°56' E 008°45'1516.1
2014-Aug-25 23:33N 37°54' E 008°26'2017.9
2014-Aug-25 22:25N 37°53' E 008°01'1514.6
2014-Aug-25 21:24N 37°52' E 007°42'3615.8
2014-Aug-25 19:09N 37°52' E 006°57'1316.4
2014-Aug-25 18:22N 37°51' E 006°41'3315.0
2014-Aug-25 16:10N 37°51' E 005°59'813.7
2014-Aug-25 15:33N 37°51' E 005°48'1514.5
2014-Aug-25 14:33N 37°51' E 005°30'1414.4
2014-Aug-25 13:33N 37°50' E 005°12'1515.0
2014-Aug-25 12:33N 37°48' E 004°53'1515.4
2014-Aug-25 11:33N 37°44' E 004°34'1515.1
2014-Aug-25 10:33N 37°40' E 004°16'1515.2
2014-Aug-25 09:33N 37°36' E 003°57'1615.9
2014-Aug-25 08:33N 37°32' E 003°38'1616.0
2014-Aug-25 07:33N 37°28' E 003°18'1616.3
2014-Aug-25 06:33N 37°24' E 002°58'1615.9
2014-Aug-25 05:33N 37°19' E 002°39'1615.8
2014-Aug-25 04:32N 37°16' E 002°19'1715.8
2014-Aug-25 03:28N 37°12' E 001°59'4515.4
2014-Aug-25 00:33N 36°59' E 001°05'1515.0
2014-Aug-24 23:33N 36°54' E 000°47'4515.1
2014-Aug-24 20:33N 36°41' W 000°07'1815.1
2014-Aug-24 19:21N 36°37' W 000°29'1415.8
2014-Aug-24 18:29N 36°33' W 000°45'1415.4
2014-Aug-24 17:33N 36°29' W 001°03'20916.0
2014-Aug-24 04:32N 35°60' W 005°19'7214.2
2014-Aug-23 23:28N 35°49' W 006°46'1415.8
2014-Aug-23 22:33N 35°45' W 007°03'1616.0
2014-Aug-23 21:33N 35°41' W 007°23'  

Dump ship's entire track history